createdAt,value
2016-06-08T00:00:13.884Z,0
2016-06-08T00:01:13.902Z,0
2016-06-08T00:02:13.921Z,0
2016-06-08T00:03:13.970Z,0
2016-06-08T00:04:14.066Z,0
2016-06-08T00:05:13.991Z,0
2016-06-08T00:06:14.009Z,0
2016-06-08T00:07:14.028Z,0
2016-06-08T00:08:14.046Z,0
2016-06-08T00:09:14.080Z,0
2016-06-08T00:10:14.083Z,0
2016-06-08T00:11:14.132Z,0
2016-06-08T00:12:14.150Z,0
2016-06-08T00:13:14.152Z,0
2016-06-08T00:14:14.171Z,0
2016-06-08T00:15:14.190Z,0
2016-06-08T00:16:14.208Z,0
2016-06-08T00:17:14.227Z,0
2016-06-08T00:18:14.260Z,0
2016-06-08T00:19:14.107Z,0
2016-06-08T00:20:14.312Z,0
2016-06-08T00:21:14.315Z,0
2016-06-08T00:22:14.334Z,0
2016-06-08T00:23:14.368Z,0
2016-06-08T00:24:14.386Z,0
2016-06-08T00:25:14.247Z,0
2016-06-08T00:26:14.282Z,0
2016-06-08T00:27:15.253Z,0
2016-06-08T00:28:14.475Z,0
2016-06-08T00:29:14.477Z,0
2016-06-08T00:30:14.355Z,0
2016-06-08T00:31:14.530Z,0
2016-06-08T00:32:14.548Z,0
2016-06-08T00:33:14.395Z,0
2016-06-08T00:34:14.584Z,0
2016-06-08T00:35:14.603Z,0
2016-06-08T00:36:14.621Z,0
2016-06-08T00:37:14.655Z,0
2016-06-08T00:38:14.658Z,0
2016-06-08T00:39:14.676Z,0
2016-06-08T00:40:14.711Z,0
2016-06-08T00:41:15.525Z,0
2016-06-08T00:42:14.935Z,0
2016-06-08T00:43:14.750Z,0
2016-06-08T00:44:14.783Z,0
2016-06-08T00:45:14.802Z,0
2016-06-08T00:46:14.851Z,0
2016-06-08T00:47:14.838Z,0
2016-06-08T00:48:14.872Z,0
2016-06-08T00:49:14.891Z,0
2016-06-08T00:50:14.893Z,0
2016-06-08T00:51:14.912Z,0
2016-06-08T00:52:14.945Z,0
2016-06-08T00:53:14.979Z,0
2016-06-08T00:54:14.998Z,0
2016-06-08T00:55:15.000Z,0
2016-06-08T00:56:15.582Z,0
2016-06-08T00:57:15.756Z,0
2016-06-08T00:58:15.087Z,0
2016-06-08T00:59:15.074Z,0
2016-06-08T01:00:15.108Z,0
2016-06-08T01:01:15.111Z,0
2016-06-08T01:02:15.144Z,0
2016-06-08T01:03:15.022Z,0
2016-06-08T01:04:15.197Z,0
2016-06-08T01:05:15.215Z,0
2016-06-08T01:06:15.217Z,0
2016-06-08T01:07:15.252Z,0
2016-06-08T01:08:15.269Z,0
2016-06-08T01:09:15.288Z,0
2016-06-08T01:10:15.338Z,0
2016-06-08T01:11:15.871Z,0
2016-06-08T01:12:15.219Z,0
2016-06-08T01:13:15.361Z,0
2016-06-08T01:14:15.396Z,0
2016-06-08T01:15:15.399Z,0
2016-06-08T01:16:15.432Z,0
2016-06-08T01:17:15.450Z,0
2016-06-08T01:18:15.452Z,0
2016-06-08T01:19:15.487Z,0
2016-06-08T01:20:15.505Z,0
2016-06-08T01:21:15.524Z,0
2016-06-08T01:22:15.557Z,0
2016-06-08T01:23:15.560Z,0
2016-06-08T01:24:15.610Z,0
2016-06-08T01:25:15.612Z,0
2016-06-08T01:26:15.771Z,0
2016-06-08T01:27:16.273Z,0
2016-06-08T01:28:15.668Z,0
2016-06-08T01:29:15.686Z,0
2016-06-08T01:30:15.704Z,0
2016-06-08T01:31:15.723Z,0
2016-06-08T01:32:15.600Z,0
2016-06-08T01:33:15.775Z,0
2016-06-08T01:34:15.652Z,0
2016-06-08T01:35:15.795Z,0
2016-06-08T01:36:15.814Z,0
2016-06-08T01:37:15.848Z,0
2016-06-08T01:38:15.881Z,0
2016-06-08T01:39:15.869Z,0
2016-06-08T01:40:15.918Z,0
2016-06-08T01:41:17.014Z,0
2016-06-08T01:42:15.830Z,0
2016-06-08T01:43:15.973Z,0
2016-06-08T01:44:15.992Z,0
2016-06-08T01:45:15.854Z,0
2016-06-08T01:46:16.028Z,0
2016-06-08T01:47:16.047Z,0
2016-06-08T01:48:16.080Z,0
2016-06-08T01:49:16.083Z,0
2016-06-08T01:50:16.101Z,0
2016-06-08T01:51:16.120Z,0
2016-06-08T01:52:16.169Z,0
2016-06-08T01:53:16.172Z,0
2016-06-08T01:54:16.174Z,0
2016-06-08T01:55:16.209Z,0
2016-06-08T01:56:16.242Z,0
2016-06-08T01:57:16.245Z,0
2016-06-08T01:58:16.279Z,0
2016-06-08T01:59:16.298Z,0
2016-06-08T02:00:16.301Z,0
2016-06-08T02:01:16.318Z,0
2016-06-08T02:02:16.353Z,0
2016-06-08T02:03:16.371Z,0
2016-06-08T02:04:16.389Z,0
2016-06-08T02:05:16.392Z,0
2016-06-08T02:06:16.410Z,0
2016-06-08T02:07:16.288Z,0
2016-06-08T02:08:16.462Z,0
2016-06-08T02:09:16.481Z,0
2016-06-08T02:10:16.514Z,0
2016-06-08T02:11:16.533Z,0
2016-06-08T02:12:16.582Z,0
2016-06-08T02:13:16.570Z,0
2016-06-08T02:14:16.588Z,0
2016-06-08T02:15:16.606Z,0
2016-06-08T02:16:16.609Z,0
2016-06-08T02:17:16.643Z,0
2016-06-08T02:18:16.661Z,0
2016-06-08T02:19:16.383Z,4
2016-06-08T02:20:16.541Z,4
2016-06-08T02:21:16.732Z,4
2016-06-08T02:22:16.749Z,0
2016-06-08T02:23:16.752Z,0
2016-06-08T02:24:16.802Z,4
2016-06-08T02:25:16.805Z,4
2016-06-08T02:26:16.682Z,4
2016-06-08T02:27:17.545Z,0
2016-06-08T02:28:16.875Z,4
2016-06-08T02:29:16.862Z,4
2016-06-08T02:30:16.912Z,4
2016-06-08T02:31:16.758Z,4
2016-06-08T02:32:16.934Z,4
2016-06-08T02:33:16.795Z,8
2016-06-08T02:34:16.970Z,8
2016-06-08T02:35:17.004Z,4
2016-06-08T02:36:17.022Z,8
2016-06-08T02:37:17.040Z,8
2016-06-08T02:38:17.059Z,12
2016-06-08T02:39:17.077Z,12
2016-06-08T02:40:16.939Z,12
2016-06-08T02:41:16.973Z,16
2016-06-08T02:42:17.803Z,16
2016-06-08T02:43:17.150Z,16
2016-06-08T02:44:17.168Z,20
2016-06-08T02:45:17.046Z,20
2016-06-08T02:46:17.206Z,24
2016-06-08T02:47:17.223Z,28
2016-06-08T02:48:17.258Z,32
2016-06-08T02:49:17.260Z,36
2016-06-08T02:50:17.294Z,36
2016-06-08T02:51:17.297Z,40
2016-06-08T02:52:17.330Z,44
2016-06-08T02:53:17.349Z,52
2016-06-08T02:54:17.368Z,56
2016-06-08T02:55:17.385Z,60
2016-06-08T02:56:17.404Z,64
2016-06-08T02:57:17.360Z,64
2016-06-08T02:58:17.440Z,68
2016-06-08T02:59:17.474Z,68
2016-06-08T03:00:17.492Z,68
2016-06-08T03:01:17.511Z,68
2016-06-08T03:02:17.546Z,68
2016-06-08T03:03:17.531Z,68
2016-06-08T03:04:17.567Z,76
2016-06-08T03:05:17.569Z,80
2016-06-08T03:06:17.603Z,80
2016-06-08T03:07:17.621Z,80
2016-06-08T03:08:17.639Z,84
2016-06-08T03:09:17.658Z,84
2016-06-08T03:10:17.676Z,88
2016-06-08T03:11:17.710Z,92
2016-06-08T03:12:18.416Z,92
2016-06-08T03:13:17.747Z,92
2016-06-08T03:14:17.780Z,92
2016-06-08T03:15:17.767Z,96
2016-06-08T03:16:17.801Z,100
2016-06-08T03:17:17.804Z,104
2016-06-08T03:18:17.839Z,108
2016-06-08T03:19:17.857Z,112
2016-06-08T03:20:17.719Z,120
2016-06-08T03:21:17.893Z,124
2016-06-08T03:22:17.927Z,124
2016-06-08T03:23:17.632Z,132
2016-06-08T03:24:17.963Z,136
2016-06-08T03:25:17.966Z,144
2016-06-08T03:26:18.001Z,148
2016-06-08T03:27:18.300Z,156
2016-06-08T03:28:18.052Z,160
2016-06-08T03:29:18.071Z,168
2016-06-08T03:30:18.073Z,176
2016-06-08T03:31:18.092Z,180
2016-06-08T03:32:18.109Z,188
2016-06-08T03:33:18.144Z,196
2016-06-08T03:34:18.148Z,208
2016-06-08T03:35:18.165Z,220
2016-06-08T03:36:18.184Z,236
2016-06-08T03:37:18.201Z,248
2016-06-08T03:38:18.236Z,264
2016-06-08T03:39:18.239Z,280
2016-06-08T03:40:18.272Z,288
2016-06-08T03:41:18.275Z,300
2016-06-08T03:42:18.419Z,312
2016-06-08T03:43:18.343Z,328
2016-06-08T03:44:18.345Z,340
2016-06-08T03:45:18.223Z,352
2016-06-08T03:46:18.383Z,364
2016-06-08T03:47:18.416Z,364
2016-06-08T03:48:18.262Z,368
2016-06-08T03:49:18.453Z,396
2016-06-08T03:50:18.471Z,428
2016-06-08T03:51:18.474Z,428
2016-06-08T03:52:18.523Z,420
2016-06-08T03:53:18.526Z,416
2016-06-08T03:54:18.435Z,420
2016-06-08T03:55:18.563Z,432
2016-06-08T03:56:18.581Z,428
2016-06-08T03:57:18.818Z,436
2016-06-08T03:58:18.492Z,448
2016-06-08T03:59:18.652Z,472
2016-06-08T04:00:18.702Z,488
2016-06-08T04:01:18.688Z,504
2016-06-08T04:02:18.706Z,520
2016-06-08T04:03:18.709Z,552
2016-06-08T04:04:18.743Z,580
2016-06-08T04:05:18.761Z,612
2016-06-08T04:06:18.795Z,640
2016-06-08T04:07:18.798Z,672
2016-06-08T04:08:18.817Z,724
2016-06-08T04:09:18.834Z,812
2016-06-08T04:10:18.869Z,920
2016-06-08T04:11:18.887Z,1008
2016-06-08T04:12:19.561Z,1092
2016-06-08T04:13:19.642Z,1188
2016-06-08T04:14:18.941Z,1256
2016-06-08T04:15:18.804Z,1328
2016-06-08T04:16:18.823Z,1436
2016-06-08T04:17:18.997Z,1536
2016-06-08T04:18:19.030Z,1584
2016-06-08T04:19:19.049Z,1608
2016-06-08T04:20:19.067Z,1604
2016-06-08T04:21:19.085Z,1560
2016-06-08T04:22:19.104Z,1468
2016-06-08T04:23:18.966Z,1384
2016-06-08T04:24:19.141Z,1312
2016-06-08T04:25:19.159Z,1308
2016-06-08T04:26:19.193Z,1328
2016-06-08T04:27:20.071Z,1352
2016-06-08T04:28:19.510Z,1372
2016-06-08T04:29:19.263Z,1364
2016-06-08T04:30:19.281Z,1356
2016-06-08T04:31:19.285Z,1392
2016-06-08T04:32:19.304Z,1436
2016-06-08T04:33:19.321Z,1472
2016-06-08T04:34:19.340Z,1500
2016-06-08T04:35:19.373Z,1500
2016-06-08T04:36:19.392Z,1504
2016-06-08T04:37:19.394Z,1484
2016-06-08T04:38:19.428Z,1480
2016-06-08T04:39:19.447Z,1536
2016-06-08T04:40:19.481Z,1604
2016-06-08T04:41:19.483Z,1672
2016-06-08T04:42:20.658Z,1772
2016-06-08T04:43:20.614Z,1824
2016-06-08T04:44:19.569Z,1916
2016-06-08T04:45:19.572Z,1948
2016-06-08T04:46:19.590Z,1920
2016-06-08T04:47:19.609Z,1952
2016-06-08T04:48:19.643Z,1992
2016-06-08T04:49:19.645Z,2044
2016-06-08T04:50:19.694Z,2120
2016-06-08T04:51:19.682Z,2192
2016-06-08T04:52:19.716Z,2280
2016-06-08T04:53:19.718Z,2348
2016-06-08T04:54:19.597Z,2432
2016-06-08T04:55:19.786Z,2524
2016-06-08T04:56:19.789Z,2592
2016-06-08T04:57:19.510Z,2616
2016-06-08T04:58:19.904Z,2628
2016-06-08T04:59:19.860Z,2636
2016-06-08T05:00:19.878Z,2604
2016-06-08T05:01:19.896Z,2664
2016-06-08T05:02:19.758Z,2784
2016-06-08T05:03:19.776Z,2788
2016-06-08T05:04:19.952Z,2808
2016-06-08T05:05:19.970Z,2824
2016-06-08T05:06:20.004Z,2900
2016-06-08T05:07:20.025Z,3072
2016-06-08T05:08:20.053Z,3252
2016-06-08T05:09:20.083Z,3412
2016-06-08T05:10:20.110Z,3608
2016-06-08T05:11:19.984Z,3880
2016-06-08T05:12:22.009Z,4120
2016-06-08T05:13:20.829Z,4284
2016-06-08T05:14:20.226Z,4408
2016-06-08T05:15:20.233Z,4576
2016-06-08T05:16:19.957Z,4700
2016-06-08T05:17:20.291Z,4748
2016-06-08T05:18:20.155Z,4744
2016-06-08T05:19:20.331Z,4768
2016-06-08T05:20:20.350Z,4752
2016-06-08T05:21:20.370Z,4720
2016-06-08T05:22:20.390Z,4684
2016-06-08T05:23:20.438Z,4652
2016-06-08T05:24:20.474Z,4700
2016-06-08T05:25:20.461Z,4704
2016-06-08T05:26:20.511Z,4652
2016-06-08T05:27:20.498Z,4620
2016-06-08T05:28:22.048Z,4680
2016-06-08T05:29:20.536Z,4736
2016-06-08T05:30:20.585Z,4828
2016-06-08T05:31:20.588Z,4940
2016-06-08T05:32:20.623Z,4932
2016-06-08T05:33:20.626Z,4928
2016-06-08T05:34:20.660Z,4980
2016-06-08T05:35:20.678Z,4996
2016-06-08T05:36:20.696Z,5060
2016-06-08T05:37:20.714Z,5144
2016-06-08T05:38:20.749Z,5260
2016-06-08T05:39:20.751Z,5356
2016-06-08T05:40:20.784Z,5440
2016-06-08T05:41:20.804Z,5512
2016-06-08T05:42:20.837Z,5532
2016-06-08T05:43:21.543Z,5588
2016-06-08T05:44:20.858Z,5960
2016-06-08T05:45:20.720Z,6032
2016-06-08T05:46:20.739Z,5992
2016-06-08T05:47:20.929Z,6280
2016-06-08T05:48:20.931Z,6448
2016-06-08T05:49:20.966Z,6424
2016-06-08T05:50:21.000Z,6568
2016-06-08T05:51:21.002Z,6684
2016-06-08T05:52:21.020Z,6716
2016-06-08T05:53:21.070Z,6904
2016-06-08T05:54:20.932Z,6828
2016-06-08T05:55:21.091Z,6864
2016-06-08T05:56:21.109Z,6852
2016-06-08T05:57:21.128Z,6844
2016-06-08T05:58:21.161Z,6640
2016-06-08T05:59:21.164Z,6496
2016-06-08T06:00:21.198Z,6384
2016-06-08T06:01:21.201Z,6684
2016-06-08T06:02:21.235Z,6640
2016-06-08T06:03:21.253Z,6584
2016-06-08T06:04:21.131Z,6256
2016-06-08T06:05:21.304Z,6252
2016-06-08T06:06:21.324Z,6352
2016-06-08T06:07:21.186Z,6300
2016-06-08T06:08:21.345Z,6520
2016-06-08T06:09:21.394Z,6432
2016-06-08T06:10:21.412Z,6440
2016-06-08T06:11:21.431Z,6376
2016-06-08T06:12:21.464Z,6228
2016-06-08T06:13:22.295Z,6160
2016-06-08T06:14:21.345Z,6148
2016-06-08T06:15:21.520Z,6252
2016-06-08T06:16:21.570Z,6296
2016-06-08T06:17:21.556Z,6396
2016-06-08T06:18:21.590Z,6496
2016-06-08T06:19:21.436Z,6608
2016-06-08T06:20:21.627Z,6632
2016-06-08T06:21:21.645Z,6668
2016-06-08T06:22:21.663Z,6640
2016-06-08T06:23:21.713Z,6380
2016-06-08T06:24:21.716Z,6144
2016-06-08T06:25:21.734Z,6064
2016-06-08T06:26:21.768Z,6056
2016-06-08T06:27:21.755Z,6068
2016-06-08T06:28:22.992Z,5992
2016-06-08T06:29:21.807Z,6000
2016-06-08T06:30:21.857Z,5960
2016-06-08T06:31:21.843Z,5960
2016-06-08T06:32:21.877Z,5988
2016-06-08T06:33:21.897Z,6024
2016-06-08T06:34:21.774Z,6008
2016-06-08T06:35:21.948Z,6008
2016-06-08T06:36:21.952Z,5964
2016-06-08T06:37:21.985Z,6020
2016-06-08T06:38:21.848Z,5868
2016-06-08T06:39:21.865Z,5640
2016-06-08T06:40:21.884Z,5548
2016-06-08T06:41:22.059Z,5476
2016-06-08T06:42:22.108Z,5432
2016-06-08T06:43:22.392Z,5520
2016-06-08T06:44:22.129Z,5760
2016-06-08T06:45:22.148Z,6052
2016-06-08T06:46:22.165Z,6332
2016-06-08T06:47:22.028Z,6380
2016-06-08T06:48:22.234Z,6276
2016-06-08T06:49:22.236Z,6140
2016-06-08T06:50:22.286Z,6064
2016-06-08T06:51:22.272Z,5992
2016-06-08T06:52:22.306Z,5980
2016-06-08T06:53:22.309Z,6092
2016-06-08T06:54:22.359Z,6328
2016-06-08T06:55:22.362Z,6528
2016-06-08T06:56:22.380Z,6648
2016-06-08T06:57:22.414Z,6744
2016-06-08T06:58:22.494Z,6844
2016-06-08T06:59:22.435Z,6936
2016-06-08T07:00:22.469Z,7028
2016-06-08T07:01:22.502Z,7100
2016-06-08T07:02:22.505Z,7136
2016-06-08T07:03:22.368Z,7380
2016-06-08T07:04:22.574Z,7456
2016-06-08T07:05:22.561Z,7520
2016-06-08T07:06:22.609Z,7812
2016-06-08T07:07:22.613Z,8564
2016-06-08T07:08:22.663Z,7876
2016-06-08T07:09:22.649Z,7860
2016-06-08T07:10:22.684Z,8052
2016-06-08T07:11:22.701Z,7936
2016-06-08T07:12:22.751Z,8512
2016-06-08T07:13:22.910Z,8772
2016-06-08T07:14:22.772Z,9372
2016-06-08T07:15:22.775Z,9672
2016-06-08T07:16:22.824Z,9412
2016-06-08T07:17:22.827Z,8904
2016-06-08T07:18:22.862Z,7908
2016-06-08T07:19:22.890Z,8236
2016-06-08T07:20:22.887Z,7624
2016-06-08T07:21:22.921Z,7944
2016-06-08T07:22:22.966Z,8196
2016-06-08T07:23:22.960Z,7692
2016-06-08T07:24:22.971Z,7944
2016-06-08T07:25:22.983Z,8644
2016-06-08T07:26:22.875Z,8624
2016-06-08T07:27:23.065Z,7900
2016-06-08T07:28:23.475Z,8020
2016-06-08T07:29:23.103Z,8480
2016-06-08T07:30:23.120Z,8348
2016-06-08T07:31:23.139Z,8076
2016-06-08T07:32:23.157Z,7976
2016-06-08T07:33:23.191Z,8928
2016-06-08T07:34:23.038Z,8912
2016-06-08T07:35:23.218Z,8836
2016-06-08T07:36:23.252Z,9836
2016-06-08T07:37:23.301Z,9912
2016-06-08T07:38:23.320Z,10312
2016-06-08T07:39:23.182Z,10100
2016-06-08T07:40:23.184Z,10092
2016-06-08T07:41:23.364Z,9520
2016-06-08T07:42:23.398Z,9324
2016-06-08T07:43:23.869Z,9660
2016-06-08T07:44:23.278Z,9316
2016-06-08T07:45:23.453Z,9852
2016-06-08T07:46:23.455Z,10004
2016-06-08T07:47:23.505Z,10004
2016-06-08T07:48:23.523Z,9992
2016-06-08T07:49:23.541Z,9844
2016-06-08T07:50:23.404Z,9540
2016-06-08T07:51:23.589Z,8424
2016-06-08T07:52:23.638Z,9128
2016-06-08T07:53:23.610Z,9120
2016-06-08T07:54:23.504Z,9328
2016-06-08T07:55:23.678Z,9388
2016-06-08T07:56:23.682Z,9660
2016-06-08T07:57:23.701Z,9540
2016-06-08T07:58:23.734Z,8696
2016-06-08T07:59:24.331Z,9104
2016-06-08T08:00:23.772Z,9452
2016-06-08T08:01:23.805Z,9600
2016-06-08T08:02:23.808Z,10044
2016-06-08T08:03:23.858Z,10116
2016-06-08T08:04:23.861Z,9456
2016-06-08T08:05:23.894Z,9696
2016-06-08T08:06:23.928Z,9848
2016-06-08T08:07:23.931Z,9860
2016-06-08T08:08:23.965Z,9152
2016-06-08T08:09:23.968Z,9432
2016-06-08T08:10:24.002Z,9276
2016-06-08T08:11:24.023Z,8968
2016-06-08T08:12:24.041Z,9008
2016-06-08T08:13:23.966Z,9372
2016-06-08T08:14:23.789Z,9340
2016-06-08T08:15:23.994Z,9220
2016-06-08T08:16:24.138Z,9464
2016-06-08T08:17:23.843Z,9852
2016-06-08T08:18:24.174Z,9860
2016-06-08T08:19:24.052Z,9832
2016-06-08T08:20:24.227Z,9628
2016-06-08T08:21:24.088Z,9628
2016-06-08T08:22:24.263Z,9592
2016-06-08T08:23:24.296Z,9464
2016-06-08T08:24:24.316Z,9312
2016-06-08T08:25:24.335Z,9336
2016-06-08T08:26:24.742Z,9504
2016-06-08T08:27:24.387Z,9496
2016-06-08T08:28:24.842Z,9516
2016-06-08T08:29:24.579Z,9368
2016-06-08T08:30:24.441Z,9208
2016-06-08T08:31:24.475Z,9372
2016-06-08T08:32:24.509Z,9392
2016-06-08T08:33:24.511Z,9580
2016-06-08T08:34:24.530Z,9492
2016-06-08T08:35:24.564Z,9576
2016-06-08T08:36:24.581Z,9328
2016-06-08T08:37:24.600Z,9260
2016-06-08T08:38:24.650Z,9144
2016-06-08T08:39:24.669Z,9132
2016-06-08T08:40:24.672Z,9124
2016-06-08T08:41:24.689Z,8924
2016-06-08T08:42:24.708Z,8600
2016-06-08T08:43:25.164Z,8588
2016-06-08T08:44:25.464Z,8888
2016-06-08T08:45:24.778Z,9132
2016-06-08T08:46:24.797Z,9080
2016-06-08T08:47:24.830Z,9584
2016-06-08T08:48:24.833Z,9912
2016-06-08T08:49:24.882Z,9916
2016-06-08T08:50:24.901Z,9952
2016-06-08T08:51:24.919Z,10280
2016-06-08T08:52:24.921Z,10384
2016-06-08T08:53:24.956Z,10520
2016-06-08T08:54:24.974Z,10456
2016-06-08T08:55:25.007Z,10604
2016-06-08T08:56:24.885Z,10592
2016-06-08T08:57:25.045Z,10684
2016-06-08T08:58:25.095Z,10528
2016-06-08T08:59:25.957Z,10412
2016-06-08T09:00:25.116Z,10476
2016-06-08T09:01:25.133Z,10140
2016-06-08T09:02:25.152Z,10336
2016-06-08T09:03:25.171Z,10688
2016-06-08T09:04:25.220Z,10588
2016-06-08T09:05:25.239Z,10628
2016-06-08T09:06:25.256Z,10696
2016-06-08T09:07:25.259Z,10908
2016-06-08T09:08:25.137Z,10716
2016-06-08T09:09:25.311Z,10388
2016-06-08T09:10:25.189Z,10268
2016-06-08T09:11:25.348Z,10436
2016-06-08T09:12:25.382Z,10664
2016-06-08T09:13:25.478Z,11120
2016-06-08T09:14:25.622Z,11244
2016-06-08T09:15:25.437Z,11340
2016-06-08T09:16:25.455Z,11496
2016-06-08T09:17:26.161Z,11136
2016-06-08T09:18:25.508Z,11184
2016-06-08T09:19:25.526Z,11276
2016-06-08T09:20:25.560Z,11420
2016-06-08T09:21:25.610Z,11240
2016-06-08T09:22:25.597Z,11132
2016-06-08T09:23:25.630Z,11116
2016-06-08T09:24:25.649Z,11080
2016-06-08T09:25:25.667Z,10920
2016-06-08T09:26:25.701Z,10896
2016-06-08T09:27:25.751Z,11104
2016-06-08T09:28:25.738Z,11260
2016-06-08T09:29:26.693Z,11252
2016-06-08T09:30:25.789Z,11540
2016-06-08T09:31:25.824Z,11584
2016-06-08T09:32:25.842Z,11608
2016-06-08T09:33:25.876Z,10744
2016-06-08T09:34:25.722Z,10484
2016-06-08T09:35:25.897Z,9432
2016-06-08T09:36:25.947Z,9332
2016-06-08T09:37:25.949Z,11120
2016-06-08T09:38:25.967Z,10944
2016-06-08T09:39:26.001Z,11436
2016-06-08T09:40:26.004Z,11376
2016-06-08T09:41:26.039Z,10268
2016-06-08T09:42:26.056Z,10292
2016-06-08T09:43:26.106Z,10172
2016-06-08T09:44:26.594Z,10292
2016-06-08T09:45:26.128Z,10264
2016-06-08T09:46:26.145Z,10388
2016-06-08T09:47:26.164Z,10532
2016-06-08T09:48:26.213Z,10468
2016-06-08T09:49:26.232Z,10504
2016-06-08T09:50:26.266Z,9408
2016-06-08T09:51:26.268Z,10408
2016-06-08T09:52:26.286Z,9044
2016-06-08T09:53:26.320Z,9852
2016-06-08T09:54:26.339Z,9212
2016-06-08T09:55:26.201Z,9640
2016-06-08T09:56:26.219Z,9212
2016-06-08T09:57:26.253Z,9604
2016-06-08T09:58:26.427Z,9768
2016-06-08T09:59:27.040Z,9784
2016-06-08T10:00:26.307Z,10092
2016-06-08T10:01:26.482Z,9852
2016-06-08T10:02:26.532Z,10052
2016-06-08T10:03:26.566Z,9864
2016-06-08T10:04:26.553Z,10068
2016-06-08T10:05:26.587Z,10016
2016-06-08T10:06:26.465Z,8592
2016-06-08T10:07:26.640Z,9864
2016-06-08T10:08:26.659Z,9988
2016-06-08T10:09:26.722Z,9840
2016-06-08T10:10:26.695Z,9868
2016-06-08T10:11:26.712Z,9928
2016-06-08T10:12:26.762Z,9916
2016-06-08T10:13:26.781Z,9944
2016-06-08T10:14:26.658Z,8864
2016-06-08T10:15:26.817Z,8684
2016-06-08T10:16:26.695Z,9720
2016-06-08T10:17:26.714Z,9692
2016-06-08T10:18:26.919Z,9556
2016-06-08T10:19:27.343Z,9600
2016-06-08T10:20:26.971Z,9932
2016-06-08T10:21:26.974Z,9604
2016-06-08T10:22:26.977Z,9524
2016-06-08T10:23:26.994Z,9528
2016-06-08T10:24:27.060Z,8772
2016-06-08T10:25:27.046Z,8772
2016-06-08T10:26:26.924Z,9832
2016-06-08T10:27:27.099Z,10100
2016-06-08T10:28:27.102Z,10004
2016-06-08T10:29:28.683Z,10256
2016-06-08T10:30:27.138Z,10296
2016-06-08T10:31:27.048Z,10416
2016-06-08T10:32:27.222Z,10352
2016-06-08T10:33:27.147Z,10276
2016-06-08T10:34:27.228Z,10348
2016-06-08T10:35:27.277Z,10280
2016-06-08T10:36:27.311Z,10428
2016-06-08T10:37:27.329Z,10492
2016-06-08T10:38:27.348Z,10572
2016-06-08T10:39:27.351Z,10640
2016-06-08T10:40:27.244Z,10604
2016-06-08T10:41:27.418Z,10308
2016-06-08T10:42:27.453Z,10352
2016-06-08T10:43:27.455Z,10320
2016-06-08T10:44:27.333Z,10064
2016-06-08T10:45:27.492Z,10036
2016-06-08T10:46:27.510Z,9728
2016-06-08T10:47:27.559Z,9352
2016-06-08T10:48:27.561Z,9396
2016-06-08T10:49:27.611Z,9372
2016-06-08T10:50:27.614Z,9460
2016-06-08T10:51:28.117Z,9472
2016-06-08T10:52:27.682Z,9388
2016-06-08T10:53:27.700Z,9508
2016-06-08T10:54:27.703Z,9440
2016-06-08T10:55:27.738Z,9736
2016-06-08T10:56:27.755Z,9532
2016-06-08T10:57:28.164Z,9508
2016-06-08T10:58:27.807Z,9548
2016-06-08T10:59:28.138Z,9416
2016-06-08T11:00:28.032Z,9844
2016-06-08T11:01:27.879Z,9872
2016-06-08T11:02:27.882Z,9920
2016-06-08T11:03:28.009Z,10252
2016-06-08T11:04:27.949Z,10548
2016-06-08T11:05:27.998Z,10968
2016-06-08T11:06:28.001Z,11300
2016-06-08T11:07:28.035Z,11112
2016-06-08T11:08:28.038Z,10984
2016-06-08T11:09:28.056Z,10868
2016-06-08T11:10:28.075Z,10624
2016-06-08T11:11:28.108Z,11136
2016-06-08T11:12:28.111Z,10848
2016-06-08T11:13:28.145Z,10564
2016-06-08T11:14:28.538Z,10392
2016-06-08T11:15:28.041Z,10432
2016-06-08T11:16:28.200Z,10372
2016-06-08T11:17:28.233Z,10620
2016-06-08T11:18:28.111Z,10728
2016-06-08T11:19:28.270Z,10752
2016-06-08T11:20:28.304Z,11016
2016-06-08T11:21:28.167Z,10772
2016-06-08T11:22:28.358Z,11240
2016-06-08T11:23:28.249Z,11060
2016-06-08T11:24:28.394Z,11024
2016-06-08T11:25:28.411Z,10908
2016-06-08T11:26:28.446Z,10788
2016-06-08T11:27:28.496Z,10932
2016-06-08T11:28:28.482Z,10416
2016-06-08T11:29:28.547Z,10268
2016-06-08T11:30:28.519Z,10372
2016-06-08T11:31:28.568Z,10308
2016-06-08T11:32:28.618Z,10088
2016-06-08T11:33:28.590Z,9972
2016-06-08T11:34:28.623Z,9784
2016-06-08T11:35:28.673Z,9964
2016-06-08T11:36:28.520Z,10076
2016-06-08T11:37:28.537Z,10456
2016-06-08T11:38:28.743Z,10588
2016-06-08T11:39:28.761Z,10752
2016-06-08T11:40:28.764Z,10724
2016-06-08T11:41:28.784Z,10684
2016-06-08T11:42:28.661Z,10644
2016-06-08T11:43:28.679Z,10516
2016-06-08T11:44:28.822Z,10376
2016-06-08T11:45:29.059Z,10244
2016-06-08T11:46:28.906Z,10212
2016-06-08T11:47:28.768Z,10340
2016-06-08T11:48:28.973Z,10328
2016-06-08T11:49:28.945Z,9988
2016-06-08T11:50:28.994Z,10384
2016-06-08T11:51:28.856Z,10972
2016-06-08T11:52:29.031Z,10936
2016-06-08T11:53:29.033Z,10636
2016-06-08T11:54:28.786Z,9912
2016-06-08T11:55:29.102Z,10196
2016-06-08T11:56:29.119Z,9636
2016-06-08T11:57:29.139Z,9248
2016-06-08T11:58:29.157Z,9284
2016-06-08T11:59:30.190Z,9056
2016-06-08T12:00:37.555Z,8900
2016-06-08T12:01:29.243Z,8708
2016-06-08T12:02:29.729Z,8980
2016-06-08T12:03:30.811Z,9108
2016-06-08T12:04:29.282Z,9016
2016-06-08T12:05:29.159Z,9060
2016-06-08T12:06:42.212Z,9132
2016-06-08T12:07:29.212Z,9056
2016-06-08T12:08:29.402Z,9060
2016-06-08T12:09:35.265Z,8824
2016-06-08T12:10:29.439Z,8872
2016-06-08T12:11:29.629Z,9060
2016-06-08T12:12:29.695Z,8996
2016-06-08T12:13:29.337Z,8488
2016-06-08T12:14:29.543Z,8640
2016-06-08T12:15:29.406Z,9072
2016-06-08T12:16:29.423Z,8776
2016-06-08T12:17:29.458Z,8968
2016-06-08T12:18:29.617Z,9572
2016-06-08T12:19:31.713Z,9700
2016-06-08T12:20:29.669Z,9976
2016-06-08T12:21:32.202Z,9804
2016-06-08T12:22:29.564Z,10068
2016-06-08T12:23:29.724Z,10312
2016-06-08T12:24:29.758Z,11024
2016-06-08T12:25:29.760Z,11600
2016-06-08T12:26:29.825Z,11144
2016-06-08T12:27:29.813Z,10520
2016-06-08T12:28:29.847Z,11080
2016-06-08T12:29:29.709Z,11424
2016-06-08T12:30:29.899Z,11416
2016-06-08T12:31:32.620Z,11524
2016-06-08T12:32:29.983Z,11600
2016-06-08T12:33:29.938Z,10652
2016-06-08T12:34:29.972Z,10304
2016-06-08T12:35:30.006Z,9936
2016-06-08T12:36:30.024Z,10056
2016-06-08T12:37:29.887Z,10104
2016-06-08T12:38:30.061Z,10300
2016-06-08T12:39:30.079Z,10192
2016-06-08T12:40:30.129Z,10520
2016-06-08T12:41:32.912Z,10204
2016-06-08T12:42:30.165Z,10056
2016-06-08T12:43:30.059Z,10384
2016-06-08T12:44:30.593Z,10708
2016-06-08T12:45:30.970Z,10684
2016-06-08T12:46:30.254Z,10496
2016-06-08T12:47:30.304Z,10340
2016-06-08T12:48:30.134Z,10244
2016-06-08T12:49:30.153Z,9928
2016-06-08T12:50:30.406Z,9820
2016-06-08T12:51:33.049Z,9952
2016-06-08T12:52:30.380Z,9736
2016-06-08T12:53:30.258Z,9856
2016-06-08T12:54:30.416Z,9724
2016-06-08T12:55:30.450Z,9596
2016-06-08T12:56:30.485Z,9508
2016-06-08T12:57:30.502Z,8988
2016-06-08T12:58:30.366Z,8880
2016-06-08T12:59:30.868Z,9052
2016-06-08T13:00:31.011Z,8472
2016-06-08T13:01:32.764Z,8440
2016-06-08T13:02:30.641Z,8792
2016-06-08T13:03:30.644Z,8988
2016-06-08T13:04:30.662Z,9280
2016-06-08T13:05:30.743Z,9080
2016-06-08T13:06:30.730Z,8836
2016-06-08T13:07:30.748Z,8540
2016-06-08T13:08:30.767Z,8856
2016-06-08T13:09:30.628Z,9160
2016-06-08T13:10:30.803Z,9372
2016-06-08T13:11:32.947Z,9248
2016-06-08T13:12:30.856Z,8988
2016-06-08T13:13:30.889Z,8776
2016-06-08T13:14:31.314Z,8756
2016-06-08T13:15:31.145Z,8852
2016-06-08T13:16:30.945Z,9044
2016-06-08T13:17:30.962Z,9112
2016-06-08T13:18:30.981Z,9232
2016-06-08T13:19:31.014Z,9292
2016-06-08T13:20:31.033Z,9336
2016-06-08T13:21:33.740Z,9884
2016-06-08T13:22:31.086Z,9724
2016-06-08T13:23:31.103Z,9620
2016-06-08T13:24:31.122Z,9548
2016-06-08T13:25:31.156Z,9456
2016-06-08T13:26:31.175Z,9428
2016-06-08T13:27:31.208Z,9144
2016-06-08T13:28:31.227Z,9216
2016-06-08T13:29:31.245Z,8872
2016-06-08T13:30:31.669Z,8848
2016-06-08T13:31:34.782Z,9628
2016-06-08T13:32:31.363Z,9868
2016-06-08T13:33:31.318Z,10336